Sunflower Gold — JD2460 — position and weather

sailwx.info

Track history (hours):
 
Tides and Currents Weather Stations Pressure Air Temp Water Temp Dewpoint Dewpoint Depression Visibility Wind Speed Wind Dir Waves Ship Positions

Sunflower Gold

Last reported at 2017-Feb-23 11:16 UTC. Time now 2017-Feb-23 11:57 UTC.
Position N 34°36' E 134°54'.

Length 166 m; draft 5.8 m.

Type: Passenger vessel. MMSI: 431000331.

Date/timePositionNaut miles runAvg speedWind from/ knotsBaromVisibWave heightAir tempDewpointWater temp
2017-Feb-23 11:16N 34°36' E 134°54'1419.8
2017-Feb-23 10:33N 34°36' E 135°11'7 7.3
2017-Feb-23 09:33N 34°42' E 135°17'0 0.0
2017-Feb-23 08:33N 34°42' E 135°17'0 0.0
2017-Feb-23 07:33N 34°42' E 135°17'0 0.0
2017-Feb-23 06:33N 34°42' E 135°17'0 0.0
2017-Feb-23 05:33N 34°42' E 135°17'0 0.0
2017-Feb-23 04:33N 34°42' E 135°17'0 0.0
2017-Feb-23 03:33N 34°42' E 135°17'0 0.0
2017-Feb-23 02:33N 34°42' E 135°17'0 0.0
2017-Feb-23 01:27N 34°42' E 135°17'0 0.0
2017-Feb-23 00:33N 34°42' E 135°17'0 0.0
2017-Feb-22 23:33N 34°42' E 135°17'0 0.0
2017-Feb-22 22:21N 34°42' E 135°17'0 0.0
2017-Feb-22 21:33N 34°42' E 135°17'1212.4
2017-Feb-22 20:33N 34°35' E 135°04'12618.0
2017-Feb-22 13:32N 33°55' E 132°39'2121.4
2017-Feb-22 12:33N 33°44' E 132°18'13 0.7
2017-Feb-21 19:27N 33°35' E 132°07'1819.9
2017-Feb-21 18:33N 33°45' E 132°25'1919.5
2017-Feb-21 17:33N 33°58' E 132°43'11518.4
2017-Feb-21 11:17N 34°36' E 134°54'1519.9
2017-Feb-21 10:33N 34°36' E 135°12'7 6.7
2017-Feb-21 09:31N 34°42' E 135°17'0 0.0
2017-Feb-21 08:25N 34°42' E 135°17'0 0.0
2017-Feb-21 07:25N 34°42' E 135°17'0 0.0
2017-Feb-21 06:25N 34°42' E 135°17'0 0.0
2017-Feb-21 05:31N 34°42' E 135°17'0 0.0
2017-Feb-21 04:25N 34°42' E 135°17'0 0.0
2017-Feb-21 03:31N 34°42' E 135°17'0 0.0
2017-Feb-21 02:31N 34°42' E 135°17'0 0.0
2017-Feb-21 01:31N 34°42' E 135°17'0 0.0
2017-Feb-21 00:25N 34°42' E 135°17'0 0.0
2017-Feb-20 23:25N 34°42' E 135°17'0 0.0
2017-Feb-20 22:25N 34°42' E 135°17'0 0.0
2017-Feb-20 21:32N 34°42' E 135°17'1111.3
2017-Feb-20 20:33N 34°35' E 135°07'13018.6
2017-Feb-20 13:33N 33°54' E 132°37'2120.8
2017-Feb-20 12:33N 33°42' E 132°17'9 0.5
2017-Feb-19 19:28N 33°36' E 132°09'1920.9
2017-Feb-19 18:33N 33°46' E 132°28'2019.9
2017-Feb-19 17:32N 34°01' E 132°45'11018.2
2017-Feb-19 11:29N 34°35' E 134°52'1617.5
2017-Feb-19 10:33N 34°36' E 135°11'7 5.9
2017-Feb-19 09:20N 34°42' E 135°17'0 0.0
2017-Feb-19 08:32N 34°42' E 135°17'0 0.0
2017-Feb-19 07:32N 34°42' E 135°17'0 0.0
2017-Feb-19 06:20N 34°42' E 135°17'0 0.0
2017-Feb-19 05:32N 34°42' E 135°17'0 0.0
2017-Feb-19 04:14N 34°42' E 135°17'0 0.0
2017-Feb-19 03:26N 34°42' E 135°17'0 0.0
2017-Feb-19 02:32N 34°42' E 135°17'0 0.0
2017-Feb-19 01:32N 34°42' E 135°17'0 0.0
2017-Feb-19 00:32N 34°42' E 135°17'0 0.0
2017-Feb-18 23:32N 34°42' E 135°17'1 1.0
2017-Feb-18 22:33N 34°41' E 135°18'1413.8
2017-Feb-18 21:33N 34°36' E 135°03'11916.9
2017-Feb-18 14:33N 34°02' E 132°45'1919.4
2017-Feb-18 13:33N 33°47' E 132°30'23 1.3
2017-Feb-17 20:23N 33°35' E 132°06'1619.1
2017-Feb-17 19:33N 33°44' E 132°22'2019.6
2017-Feb-17 18:33N 33°56' E 132°40'11418.5
2017-Feb-17 12:22N 34°35' E 134°50'1518.8
2017-Feb-17 11:33N 34°36' E 135°09'9 9.1
2017-Feb-17 10:33N 34°42' E 135°17'0 0.0
2017-Feb-17 09:29N 34°42' E 135°17'0 0.0
2017-Feb-17 08:29N 34°42' E 135°17'0 0.0
2017-Feb-17 07:29N 34°42' E 135°17'0 0.0
2017-Feb-17 06:23N 34°42' E 135°17'0 0.0
2017-Feb-17 05:29N 34°42' E 135°17'0 0.0
2017-Feb-17 04:23N 34°42' E 135°17'0 0.0
2017-Feb-17 03:23N 34°42' E 135°17'0 0.0
2017-Feb-17 02:23N 34°42' E 135°17'0 0.0
2017-Feb-17 01:29N 34°42' E 135°17'0 0.0
2017-Feb-17 00:23N 34°42' E 135°17'0 0.0
2017-Feb-16 23:29N 34°42' E 135°17'0 0.0
2017-Feb-16 22:29N 34°42' E 135°17'0 0.0
2017-Feb-16 21:33N 34°42' E 135°17'1211.5
2017-Feb-16 20:33N 34°34' E 135°07'12918.4
2017-Feb-16 13:33N 33°55' E 132°39'2221.5
2017-Feb-16 12:33N 33°41' E 132°18'10 0.6
2017-Feb-15 19:26N 33°35' E 132°09'1820.6
2017-Feb-15 18:33N 33°46' E 132°26'2221.1
2017-Feb-15 17:32N 34°01' E 132°45'11118.0
2017-Feb-15 11:22N 34°36' E 134°53'1518.8
2017-Feb-15 10:33N 34°36' E 135°11'7 7.5
2017-Feb-15 09:33N 34°42' E 135°17'0 0.0
2017-Feb-15 08:29N 34°42' E 135°17'0 0.0
2017-Feb-15 07:29N 34°42' E 135°17'0 0.0
2017-Feb-15 06:29N 34°42' E 135°17'0 0.0
2017-Feb-15 05:29N 34°42' E 135°17'0 0.0
2017-Feb-15 04:29N 34°42' E 135°17'0 0.0
2017-Feb-15 03:29N 34°42' E 135°17'0 0.0
2017-Feb-15 02:23N 34°42' E 135°17'0 0.0
2017-Feb-15 01:29N 34°42' E 135°17'0 0.0
2017-Feb-15 00:29N 34°42' E 135°17'0 0.0
2017-Feb-14 23:29N 34°42' E 135°17'0 0.0
2017-Feb-14 22:29N 34°42' E 135°17'0 0.0
2017-Feb-14 21:33N 34°42' E 135°17'1211.9
2017-Feb-14 20:33N 34°34' E 135°06'1919.1
2017-Feb-14 19:33N 34°30' E 134°43'9718.1
2017-Feb-14 14:11N 34°06' E 132°49'1522.8
2017-Feb-14 13:33N 33°55' E 132°39'2121.6
2017-Feb-14 12:33N 33°41' E 132°18'7 0.4
2017-Feb-13 19:17N 33°39' E 132°11'1520.6
2017-Feb-13 18:33N 33°47' E 132°26'2120.5
2017-Feb-13 17:32N 34°01' E 132°45'10917.9
2017-Feb-13 11:26N 34°34' E 134°51'  
Track history (hours):
 
Tides and Currents Weather Stations Pressure Air Temp Water Temp Dewpoint Dewpoint Depression Visibility Wind Speed Wind Dir Waves Ship Positions

Sunflower Gold

Last reported at 2017-Feb-23 11:16 UTC. Time now 2017-Feb-23 11:57 UTC.
Position N 34°36' E 134°54'.

Length 166 m; draft 5.8 m.

Type: Passenger vessel. MMSI: 431000331.

Date/timePositionNaut miles runAvg speedWind from/ knotsBaromVisibWave heightAir tempDewpointWater temp
2017-Feb-23 11:16N 34°36' E 134°54'1419.8
2017-Feb-23 10:33N 34°36' E 135°11'7 7.3
2017-Feb-23 09:33N 34°42' E 135°17'0 0.0
2017-Feb-23 08:33N 34°42' E 135°17'0 0.0
2017-Feb-23 07:33N 34°42' E 135°17'0 0.0
2017-Feb-23 06:33N 34°42' E 135°17'0 0.0
2017-Feb-23 05:33N 34°42' E 135°17'0 0.0
2017-Feb-23 04:33N 34°42' E 135°17'0 0.0
2017-Feb-23 03:33N 34°42' E 135°17'0 0.0
2017-Feb-23 02:33N 34°42' E 135°17'0 0.0
2017-Feb-23 01:27N 34°42' E 135°17'0 0.0
2017-Feb-23 00:33N 34°42' E 135°17'0 0.0
2017-Feb-22 23:33N 34°42' E 135°17'0 0.0
2017-Feb-22 22:21N 34°42' E 135°17'0 0.0
2017-Feb-22 21:33N 34°42' E 135°17'1212.4
2017-Feb-22 20:33N 34°35' E 135°04'12618.0
2017-Feb-22 13:32N 33°55' E 132°39'2121.4
2017-Feb-22 12:33N 33°44' E 132°18'13 0.7
2017-Feb-21 19:27N 33°35' E 132°07'1819.9
2017-Feb-21 18:33N 33°45' E 132°25'1919.5
2017-Feb-21 17:33N 33°58' E 132°43'11518.4
2017-Feb-21 11:17N 34°36' E 134°54'1519.9
2017-Feb-21 10:33N 34°36' E 135°12'7 6.7
2017-Feb-21 09:31N 34°42' E 135°17'0 0.0
2017-Feb-21 08:25N 34°42' E 135°17'0 0.0
2017-Feb-21 07:25N 34°42' E 135°17'0 0.0
2017-Feb-21 06:25N 34°42' E 135°17'0 0.0
2017-Feb-21 05:31N 34°42' E 135°17'0 0.0
2017-Feb-21 04:25N 34°42' E 135°17'0 0.0
2017-Feb-21 03:31N 34°42' E 135°17'0 0.0
2017-Feb-21 02:31N 34°42' E 135°17'0 0.0
2017-Feb-21 01:31N 34°42' E 135°17'0 0.0
2017-Feb-21 00:25N 34°42' E 135°17'0 0.0
2017-Feb-20 23:25N 34°42' E 135°17'0 0.0
2017-Feb-20 22:25N 34°42' E 135°17'0 0.0
2017-Feb-20 21:32N 34°42' E 135°17'1111.3
2017-Feb-20 20:33N 34°35' E 135°07'13018.6
2017-Feb-20 13:33N 33°54' E 132°37'2120.8
2017-Feb-20 12:33N 33°42' E 132°17'9 0.5
2017-Feb-19 19:28N 33°36' E 132°09'1920.9
2017-Feb-19 18:33N 33°46' E 132°28'2019.9
2017-Feb-19 17:32N 34°01' E 132°45'11018.2
2017-Feb-19 11:29N 34°35' E 134°52'1617.5
2017-Feb-19 10:33N 34°36' E 135°11'7 5.9
2017-Feb-19 09:20N 34°42' E 135°17'0 0.0
2017-Feb-19 08:32N 34°42' E 135°17'0 0.0
2017-Feb-19 07:32N 34°42' E 135°17'0 0.0
2017-Feb-19 06:20N 34°42' E 135°17'0 0.0
2017-Feb-19 05:32N 34°42' E 135°17'0 0.0
2017-Feb-19 04:14N 34°42' E 135°17'0 0.0
2017-Feb-19 03:26N 34°42' E 135°17'0 0.0
2017-Feb-19 02:32N 34°42' E 135°17'0 0.0
2017-Feb-19 01:32N 34°42' E 135°17'0 0.0
2017-Feb-19 00:32N 34°42' E 135°17'0 0.0
2017-Feb-18 23:32N 34°42' E 135°17'1 1.0
2017-Feb-18 22:33N 34°41' E 135°18'1413.8
2017-Feb-18 21:33N 34°36' E 135°03'11916.9
2017-Feb-18 14:33N 34°02' E 132°45'1919.4
2017-Feb-18 13:33N 33°47' E 132°30'23 1.3
2017-Feb-17 20:23N 33°35' E 132°06'1619.1
2017-Feb-17 19:33N 33°44' E 132°22'2019.6
2017-Feb-17 18:33N 33°56' E 132°40'11418.5
2017-Feb-17 12:22N 34°35' E 134°50'1518.8
2017-Feb-17 11:33N 34°36' E 135°09'9 9.1
2017-Feb-17 10:33N 34°42' E 135°17'0 0.0
2017-Feb-17 09:29N 34°42' E 135°17'0 0.0
2017-Feb-17 08:29N 34°42' E 135°17'0 0.0
2017-Feb-17 07:29N 34°42' E 135°17'0 0.0
2017-Feb-17 06:23N 34°42' E 135°17'0 0.0
2017-Feb-17 05:29N 34°42' E 135°17'0 0.0
2017-Feb-17 04:23N 34°42' E 135°17'0 0.0
2017-Feb-17 03:23N 34°42' E 135°17'0 0.0
2017-Feb-17 02:23N 34°42' E 135°17'0 0.0
2017-Feb-17 01:29N 34°42' E 135°17'0 0.0
2017-Feb-17 00:23N 34°42' E 135°17'0 0.0
2017-Feb-16 23:29N 34°42' E 135°17'0 0.0
2017-Feb-16 22:29N 34°42' E 135°17'0 0.0
2017-Feb-16 21:33N 34°42' E 135°17'1211.5
2017-Feb-16 20:33N 34°34' E 135°07'12918.4
2017-Feb-16 13:33N 33°55' E 132°39'2221.5
2017-Feb-16 12:33N 33°41' E 132°18'10 0.6
2017-Feb-15 19:26N 33°35' E 132°09'1820.6
2017-Feb-15 18:33N 33°46' E 132°26'2221.1
2017-Feb-15 17:32N 34°01' E 132°45'11118.0
2017-Feb-15 11:22N 34°36' E 134°53'1518.8
2017-Feb-15 10:33N 34°36' E 135°11'7 7.5
2017-Feb-15 09:33N 34°42' E 135°17'0 0.0
2017-Feb-15 08:29N 34°42' E 135°17'0 0.0
2017-Feb-15 07:29N 34°42' E 135°17'0 0.0
2017-Feb-15 06:29N 34°42' E 135°17'0 0.0
2017-Feb-15 05:29N 34°42' E 135°17'0 0.0
2017-Feb-15 04:29N 34°42' E 135°17'0 0.0
2017-Feb-15 03:29N 34°42' E 135°17'0 0.0
2017-Feb-15 02:23N 34°42' E 135°17'0 0.0
2017-Feb-15 01:29N 34°42' E 135°17'0 0.0
2017-Feb-15 00:29N 34°42' E 135°17'0 0.0
2017-Feb-14 23:29N 34°42' E 135°17'0 0.0
2017-Feb-14 22:29N 34°42' E 135°17'0 0.0
2017-Feb-14 21:33N 34°42' E 135°17'1211.9
2017-Feb-14 20:33N 34°34' E 135°06'1919.1
2017-Feb-14 19:33N 34°30' E 134°43'9718.1
2017-Feb-14 14:11N 34°06' E 132°49'1522.8
2017-Feb-14 13:33N 33°55' E 132°39'2121.6
2017-Feb-14 12:33N 33°41' E 132°18'7 0.4
2017-Feb-13 19:17N 33°39' E 132°11'1520.6
2017-Feb-13 18:33N 33°47' E 132°26'2120.5
2017-Feb-13 17:32N 34°01' E 132°45'10917.9
2017-Feb-13 11:26N 34°34' E 134°51'  

Dump ship's entire track history